Time;durP1;ratioP1;P1;durP2;ratioP2;P2;SDS_P1;SDS_P2;PMS_P1;PMS_P2;Temp;Humidity;BMP_temperature;BMP_pressure;BME280_temperature;BME280_humidity;BME280_pressure;Samples;Min_cycle;Max_cycle;Signal;HPM_P1;HPM_P2
2021/12/03 00:00:39;;;;;;;17.77;6.15;;;4.60;99.90;;;;;;4913410;29;20035;-87
2021/12/03 00:03:07;;;;;;;14.63;5.47;;;4.50;99.90;;;;;;4914179;29;20064;-87
2021/12/03 00:05:33;;;;;;;16.77;5.93;;;4.40;99.90;;;;;;4913407;29;20043;-87
2021/12/03 00:07:59;;;;;;;17.92;6.25;;;4.30;99.90;;;;;;4913198;29;20028;-87
2021/12/03 00:10:26;;;;;;;12.65;6.07;;;4.30;99.90;;;;;;4914317;29;20052;-88
2021/12/03 00:12:54;;;;;;;15.13;6.15;;;4.20;99.90;;;;;;4914599;29;20023;-87
2021/12/03 00:15:23;;;;;;;14.10;6.40;;;4.20;99.90;;;;;;4914325;29;20043;-88
2021/12/03 00:17:49;;;;;;;13.98;6.55;;;4.20;99.90;;;;;;4912423;29;20032;-87
2021/12/03 00:20:17;;;;;;;17.42;6.93;;;4.10;99.90;;;;;;4914560;29;20031;-87
2021/12/03 00:22:45;;;;;;;22.70;8.43;;;4.20;99.90;;;;;;4917385;29;20497;-87
2021/12/03 00:25:11;;;;;;;25.20;9.20;;;4.20;99.90;;;;;;4914702;29;20020;-88
2021/12/03 00:27:39;;;;;;;24.23;10.10;;;4.20;99.90;;;;;;4921006;29;20034;-87
2021/12/03 00:30:10;;;;;;;23.20;10.38;;;4.30;99.90;;;;;;4935002;29;20032;-87
2021/12/03 00:32:37;;;;;;;20.95;9.93;;;4.30;99.90;;;;;;4932961;29;20070;-88
2021/12/03 00:35:05;;;;;;;22.75;9.73;;;4.30;99.90;;;;;;4933084;29;20055;-88
2021/12/03 00:37:31;;;;;;;21.60;9.32;;;4.20;99.90;;;;;;4932137;29;20588;-87
2021/12/03 00:39:56;;;;;;;24.88;9.70;;;4.20;99.90;;;;;;4933045;29;20027;-88
2021/12/03 00:42:23;;;;;;;26.05;10.15;;;4.10;99.90;;;;;;4931923;29;20034;-87
2021/12/03 00:44:52;;;;;;;34.78;14.02;;;4.10;99.90;;;;;;4931853;29;20122;-88
2021/12/03 00:47:19;;;;;;;42.75;13.27;;;4.10;99.90;;;;;;4933448;29;20323;-88
2021/12/03 00:49:45;;;;;;;33.05;13.15;;;4.00;99.90;;;;;;4933969;29;20028;-87
2021/12/03 00:52:11;;;;;;;35.58;13.32;;;4.00;99.90;;;;;;4932828;29;20436;-87
2021/12/03 00:54:37;;;;;;;32.53;12.50;;;3.90;99.90;;;;;;4931311;29;20131;-86
2021/12/03 00:57:04;;;;;;;24.35;11.05;;;4.00;99.90;;;;;;4932989;29;20063;-87
2021/12/03 00:59:30;;;;;;;21.95;10.35;;;3.90;99.90;;;;;;4932488;29;20079;-87
2021/12/03 01:01:56;;;;;;;21.80;9.07;;;3.90;99.90;;;;;;4931737;29;20042;-87
2021/12/03 01:04:22;;;;;;;23.58;10.38;;;3.80;99.90;;;;;;4931819;29;20043;-87
2021/12/03 01:06:48;;;;;;;20.13;9.48;;;3.80;99.90;;;;;;4932996;29;20474;-87
2021/12/03 01:09:14;;;;;;;21.33;10.18;;;3.80;99.90;;;;;;4934252;29;20110;-87
2021/12/03 01:11:41;;;;;;;16.40;9.20;;;3.70;99.90;;;;;;4932787;29;20048;-88
2021/12/03 01:14:07;;;;;;;20.58;9.10;;;3.70;99.90;;;;;;4931522;29;20028;-87
2021/12/03 01:16:33;;;;;;;17.35;9.18;;;3.70;99.90;;;;;;4934410;29;20489;-86
2021/12/03 01:19:00;;;;;;;16.55;8.65;;;3.60;99.90;;;;;;4934385;29;20079;-85
2021/12/03 01:21:26;;;;;;;17.98;8.38;;;3.50;99.90;;;;;;4935857;29;20028;-86
2021/12/03 01:23:54;;;;;;;20.98;9.52;;;3.50;99.90;;;;;;4932712;29;20674;-86
2021/12/03 01:26:21;;;;;;;18.92;9.70;;;3.40;99.90;;;;;;4932684;29;20024;-86
2021/12/03 01:28:47;;;;;;;20.05;10.30;;;3.40;99.90;;;;;;4917079;29;20042;-85
2021/12/03 01:31:14;;;;;;;21.20;9.07;;;3.40;99.90;;;;;;4934761;29;20530;-86
2021/12/03 01:33:40;;;;;;;19.33;9.15;;;3.40;99.90;;;;;;4936214;29;20544;-85
2021/12/03 01:36:07;;;;;;;23.70;9.82;;;3.30;99.90;;;;;;4936195;29;20024;-86
2021/12/03 01:38:33;;;;;;;20.38;9.27;;;3.40;99.90;;;;;;4936147;29;20060;-89
2021/12/03 01:40:58;;;;;;;20.88;9.65;;;3.30;99.90;;;;;;4935877;29;20024;-86
2021/12/03 01:43:26;;;;;;;19.45;9.98;;;3.30;99.90;;;;;;4935597;29;20036;-86
2021/12/03 01:46:05;;;;;;;16.23;9.52;;;3.30;99.90;;;;;;4935612;29;20020;-85
2021/12/03 01:48:31;;;;;;;20.27;9.82;;;3.20;99.90;;;;;;4935517;29;20057;-86
2021/12/03 01:50:57;;;;;;;20.33;9.60;;;3.20;99.90;;;;;;4935791;29;20051;-86
2021/12/03 01:53:27;;;;;;;24.02;9.52;;;3.20;99.90;;;;;;4935813;29;20106;-86
2021/12/03 01:55:56;;;;;;;20.33;9.90;;;3.20;99.90;;;;;;4939093;29;20039;-86
2021/12/03 01:58:21;;;;;;;19.63;9.82;;;3.20;99.90;;;;;;4935725;29;20127;-86
2021/12/03 02:00:54;;;;;;;18.27;8.95;;;3.20;99.90;;;;;;4935906;29;20127;-86
2021/12/03 02:03:22;;;;;;;17.35;8.65;;;3.10;99.90;;;;;;4935105;29;20504;-86
2021/12/03 02:05:48;;;;;;;16.50;8.77;;;3.10;99.90;;;;;;4934514;29;20083;-86
2021/12/03 02:08:14;;;;;;;14.43;8.38;;;3.10;99.90;;;;;;4935835;29;20031;-86
2021/12/03 02:10:41;;;;;;;18.25;8.85;;;3.10;99.90;;;;;;4933935;29;20030;-86
2021/12/03 02:13:07;;;;;;;21.08;8.98;;;3.10;99.90;;;;;;4935883;29;20062;-85
2021/12/03 02:15:33;;;;;;;14.38;9.43;;;3.10;99.90;;;;;;4934346;29;20027;-86
2021/12/03 02:17:59;;;;;;;20.10;9.30;;;3.20;99.90;;;;;;4934185;29;20023;-86
2021/12/03 02:20:25;;;;;;;18.65;9.30;;;3.20;99.90;;;;;;4935355;29;20027;-86
2021/12/03 02:22:51;;;;;;;24.70;9.35;;;3.10;99.90;;;;;;4935581;29;20114;-86
2021/12/03 02:25:20;;;;;;;23.45;9.48;;;3.10;99.90;;;;;;4934822;29;20132;-86
2021/12/03 02:27:52;;;;;;;27.23;10.35;;;3.10;99.90;;;;;;4935295;29;20028;-86
2021/12/03 02:30:19;;;;;;;23.27;9.82;;;3.10;99.90;;;;;;4917824;29;20059;-87
2021/12/03 02:32:49;;;;;;;24.30;10.35;;;3.10;99.90;;;;;;4935259;29;20366;-86
2021/12/03 02:35:19;;;;;;;29.73;11.55;;;3.10;99.90;;;;;;4933954;29;20071;-86
2021/12/03 02:37:46;;;;;;;30.95;12.55;;;3.10;99.90;;;;;;4933881;29;20031;-85
2021/12/03 02:40:14;;;;;;;53.67;16.85;;;3.10;99.90;;;;;;4934046;29;20031;-86
2021/12/03 02:42:40;;;;;;;63.33;21.52;;;3.10;99.90;;;;;;4935006;29;20496;-86
2021/12/03 02:45:08;;;;;;;60.05;19.35;;;3.10;99.90;;;;;;4935206;29;20032;-86
2021/12/03 02:47:35;;;;;;;55.97;18.95;;;3.00;99.90;;;;;;4933640;29;20071;-86
2021/12/03 02:50:00;;;;;;;43.78;17.27;;;3.10;99.90;;;;;;4934932;29;20521;-86
2021/12/03 02:52:26;;;;;;;44.13;15.10;;;3.10;99.90;;;;;;4934145;29;20066;-86
2021/12/03 02:54:52;;;;;;;37.03;14.02;;;3.00;99.90;;;;;;4933497;29;20063;-87
2021/12/03 02:57:18;;;;;;;35.17;14.85;;;3.00;99.90;;;;;;4934662;29;20524;-87
2021/12/03 02:59:44;;;;;;;42.05;14.35;;;3.00;99.90;;;;;;4936367;29;20573;-86
2021/12/03 03:02:10;;;;;;;35.08;13.85;;;3.00;99.90;;;;;;4933379;29;20016;-86
2021/12/03 03:04:35;;;;;;;32.15;12.95;;;3.00;99.90;;;;;;4934718;29;20048;-86
2021/12/03 03:07:01;;;;;;;33.65;13.00;;;3.00;99.90;;;;;;4935016;29;20020;-86
2021/12/03 03:09:27;;;;;;;30.85;11.65;;;3.00;99.90;;;;;;4934593;29;20032;-86
2021/12/03 03:11:53;;;;;;;25.35;11.35;;;3.00;99.90;;;;;;4934487;29;20106;-86
2021/12/03 03:14:19;;;;;;;21.25;9.90;;;3.00;99.90;;;;;;4934269;29;20031;-86
2021/12/03 03:16:46;;;;;;;26.73;11.07;;;3.00;99.90;;;;;;4934517;29;20106;-86
2021/12/03 03:19:17;;;;;;;19.92;10.10;;;3.00;99.90;;;;;;4934263;29;20035;-86
2021/12/03 03:21:43;;;;;;;18.88;9.13;;;3.10;99.90;;;;;;4932917;29;20034;-86
2021/12/03 03:24:10;;;;;;;15.00;9.25;;;3.10;99.90;;;;;;4934093;29;20104;-86
2021/12/03 03:26:41;;;;;;;17.98;8.77;;;3.10;99.90;;;;;;4934328;29;20016;-86
2021/12/03 03:29:10;;;;;;;23.52;9.45;;;3.20;99.90;;;;;;4934318;29;20043;-86
2021/12/03 03:31:37;;;;;;;23.20;9.48;;;3.20;99.90;;;;;;4935712;29;20024;-86
2021/12/03 03:34:05;;;;;;;21.55;9.68;;;3.30;99.90;;;;;;4932943;29;20628;-86
2021/12/03 03:36:36;;;;;;;20.70;9.27;;;3.30;99.90;;;;;;4933905;29;20070;-86
2021/12/03 03:39:04;;;;;;;17.70;9.60;;;3.30;99.90;;;;;;4937787;29;20020;-86
2021/12/03 03:41:30;;;;;;;21.52;9.27;;;3.40;99.90;;;;;;4933905;29;20472;-86
2021/12/03 03:43:56;;;;;;;19.85;9.80;;;3.40;99.90;;;;;;4933890;29;20068;-86
2021/12/03 03:46:22;;;;;;;22.35;9.88;;;3.50;99.90;;;;;;4935461;29;20049;-86
2021/12/03 03:48:48;;;;;;;19.58;9.25;;;3.60;99.90;;;;;;4932440;29;20444;-86
2021/12/03 03:51:15;;;;;;;19.83;9.20;;;3.60;99.90;;;;;;4935296;29;20694;-86
2021/12/03 03:53:41;;;;;;;19.52;9.32;;;3.70;99.90;;;;;;4933887;29;20424;-86
2021/12/03 03:56:08;;;;;;;20.00;9.75;;;3.70;99.90;;;;;;4933671;29;20111;-86
2021/12/03 03:58:37;;;;;;;19.08;8.27;;;3.80;99.90;;;;;;4933503;29;20048;-86
2021/12/03 04:01:06;;;;;;;17.20;9.00;;;3.80;99.90;;;;;;4932309;29;20032;-86
2021/12/03 04:03:32;;;;;;;16.42;8.50;;;3.90;99.90;;;;;;4933692;29;20043;-86
2021/12/03 04:05:59;;;;;;;16.08;8.57;;;4.00;99.90;;;;;;4933649;29;20027;-86
2021/12/03 04:08:28;;;;;;;16.17;9.35;;;4.00;99.90;;;;;;4932158;29;20028;-86
2021/12/03 04:10:59;;;;;;;14.63;8.68;;;4.10;99.90;;;;;;4933548;29;20050;-86
2021/12/03 04:13:26;;;;;;;16.33;9.48;;;4.10;99.90;;;;;;4933445;29;20497;-87
2021/12/03 04:15:51;;;;;;;19.02;9.02;;;4.20;99.90;;;;;;4933527;29;20063;-86
2021/12/03 04:18:17;;;;;;;15.48;8.60;;;4.30;99.90;;;;;;4932482;29;20060;-87
2021/12/03 04:20:44;;;;;;;17.65;8.88;;;4.30;99.90;;;;;;4935611;29;20063;-86
2021/12/03 04:23:12;;;;;;;14.15;8.15;;;4.40;99.90;;;;;;4933325;29;20039;-86
2021/12/03 04:25:38;;;;;;;14.98;8.65;;;4.40;99.90;;;;;;4933499;29;20127;-86
2021/12/03 04:28:04;;;;;;;18.50;8.05;;;4.50;99.90;;;;;;4932690;29;20533;-86
2021/12/03 04:30:30;;;;;;;14.50;7.70;;;4.50;99.90;;;;;;4933147;29;20476;-86
2021/12/03 04:32:57;;;;;;;16.38;8.52;;;4.50;99.90;;;;;;4936311;29;20032;-86
2021/12/03 04:35:24;;;;;;;15.23;8.43;;;4.50;99.90;;;;;;4935119;29;20562;-86
2021/12/03 04:37:51;;;;;;;12.60;7.75;;;4.50;99.90;;;;;;4932953;29;20023;-86
2021/12/03 04:40:19;;;;;;;14.32;7.88;;;4.50;99.90;;;;;;4932676;29;20091;-87
2021/12/03 04:42:45;;;;;;;18.15;8.27;;;4.50;99.90;;;;;;4937257;29;20093;-86
2021/12/03 04:45:17;;;;;;;17.67;8.95;;;4.60;99.90;;;;;;4936411;29;20477;-86
2021/12/03 04:47:42;;;;;;;20.30;9.15;;;4.50;99.90;;;;;;4935238;29;20023;-87
2021/12/03 04:50:10;;;;;;;19.88;8.65;;;4.60;99.90;;;;;;4934759;29;20043;-86
2021/12/03 04:52:36;;;;;;;20.27;8.85;;;4.60;99.90;;;;;;4936310;29;20420;-86
2021/12/03 04:55:02;;;;;;;16.63;7.75;;;4.60;99.90;;;;;;4934398;29;20062;-86
2021/12/03 04:57:28;;;;;;;12.45;6.85;;;4.60;99.90;;;;;;4933087;29;20135;-85
2021/12/03 04:59:54;;;;;;;12.07;6.50;;;4.70;99.90;;;;;;4934510;29;20477;-85
2021/12/03 05:02:21;;;;;;;10.05;5.25;;;4.80;99.90;;;;;;4936747;29;20043;-85
2021/12/03 05:04:48;;;;;;;11.48;3.92;;;4.90;99.90;;;;;;4936629;29;20032;-86
2021/12/03 05:07:29;;;;;;;9.02;3.58;;;4.90;99.90;;;;;;4939771;29;20028;-86
2021/12/03 05:09:55;;;;;;;9.05;3.38;;;5.00;99.90;;;;;;4938438;29;20035;-85
2021/12/03 05:12:22;;;;;;;9.20;4.10;;;5.00;99.90;;;;;;4938370;29;20035;-85
2021/12/03 05:14:47;;;;;;;14.80;4.85;;;5.00;99.90;;;;;;4923192;29;20028;-85
2021/12/03 05:17:13;;;;;;;10.32;4.55;;;5.00;99.90;;;;;;4916206;29;20039;-85
2021/12/03 05:19:38;;;;;;;15.80;5.40;;;5.00;99.90;;;;;;4916280;29;20111;-85
2021/12/03 05:22:05;;;;;;;12.15;5.75;;;5.00;99.90;;;;;;4930935;29;20393;-85
2021/12/03 05:24:30;;;;;;;13.13;5.90;;;5.10;99.90;;;;;;4935536;29;20039;-85
2021/12/03 05:26:56;;;;;;;17.60;5.63;;;5.10;99.90;;;;;;4935596;29;20035;-85
2021/12/03 05:29:23;;;;;;;14.93;6.28;;;5.10;99.90;;;;;;4935079;29;20492;-85
2021/12/03 05:31:50;;;;;;;16.05;6.75;;;5.10;99.90;;;;;;4935212;29;20480;-85
2021/12/03 05:34:16;;;;;;;17.08;6.35;;;5.10;99.90;;;;;;4935259;29;20030;-85
2021/12/03 05:36:46;;;;;;;16.85;7.45;;;5.10;99.90;;;;;;4935159;29;20028;-85
2021/12/03 05:39:12;;;;;;;16.58;6.75;;;5.10;99.90;;;;;;4935474;29;20028;-86
2021/12/03 05:41:38;;;;;;;13.60;6.00;;;5.10;99.90;;;;;;4935450;29;20031;-85
2021/12/03 05:44:05;;;;;;;13.82;6.57;;;5.10;99.90;;;;;;4926070;29;20044;-85
2021/12/03 05:46:30;;;;;;;11.98;5.55;;;5.20;99.90;;;;;;4927530;29;20240;-85
2021/12/03 05:48:56;;;;;;;10.98;5.25;;;5.20;99.90;;;;;;4926893;29;20262;-86
2021/12/03 05:51:25;;;;;;;11.57;5.07;;;5.30;99.90;;;;;;4927137;29;20024;-85
2021/12/03 05:53:52;;;;;;;7.82;3.47;;;5.30;99.90;;;;;;4927341;29;20043;-85
2021/12/03 05:56:17;;;;;;;8.93;3.40;;;5.40;99.90;;;;;;4926513;29;20356;-85
2021/12/03 05:58:44;;;;;;;8.75;3.30;;;5.50;99.90;;;;;;4926168;29;20059;-85
2021/12/03 06:01:10;;;;;;;9.48;3.13;;;5.60;99.90;;;;;;4925603;29;20047;-86
2021/12/03 06:03:35;;;;;;;8.65;2.95;;;5.70;99.90;;;;;;4926575;29;20047;-85
2021/12/03 06:06:01;;;;;;;13.77;2.92;;;5.70;99.90;;;;;;4926109;29;20020;-85
2021/12/03 06:08:27;;;;;;;11.27;2.63;;;5.80;99.90;;;;;;4926653;29;20028;-85
2021/12/03 06:10:53;;;;;;;6.80;2.80;;;5.90;99.90;;;;;;4925501;29;20020;-85
2021/12/03 06:13:19;;;;;;;6.05;2.47;;;5.80;99.90;;;;;;4926844;29;20252;-86
2021/12/03 06:15:44;;;;;;;10.85;2.38;;;5.90;99.90;;;;;;4925556;29;20024;-85
2021/12/03 06:18:10;;;;;;;7.85;2.22;;;6.00;99.90;;;;;;4926658;29;20031;-86
2021/12/03 06:20:41;;;;;;;7.20;2.03;;;6.10;99.90;;;;;;4926920;29;20308;-87
2021/12/03 06:23:07;;;;;;;6.15;1.40;;;6.20;99.90;;;;;;4934805;29;20039;-85
2021/12/03 06:25:33;;;;;;;5.53;1.70;;;6.20;99.90;;;;;;4933388;29;20048;-85
2021/12/03 06:27:59;;;;;;;5.70;1.38;;;6.30;99.90;;;;;;4933761;29;20231;-87
2021/12/03 06:30:25;;;;;;;13.07;3.58;;;6.40;99.90;;;;;;4933226;29;20036;-86
2021/12/03 06:32:52;;;;;;;6.00;2.03;;;6.50;99.90;;;;;;4931706;29;20087;-86
2021/12/03 06:35:18;;;;;;;9.27;1.80;;;6.50;99.90;;;;;;4918247;29;20095;-86
2021/12/03 06:37:45;;;;;;;8.32;2.20;;;6.40;99.90;;;;;;4908023;29;20028;-91
2021/12/03 06:40:15;;;;;;;7.57;2.28;;;6.40;99.90;;;;;;4910860;29;20039;-91
2021/12/03 06:42:41;;;;;;;10.73;3.00;;;6.40;99.90;;;;;;4922971;29;20079;-90
2021/12/03 06:45:08;;;;;;;7.43;2.63;;;6.40;99.90;;;;;;4929902;29;20039;-90
2021/12/03 06:47:34;;;;;;;11.45;3.60;;;6.50;99.90;;;;;;4934835;29;20028;-90
2021/12/03 06:50:03;;;;;;;9.82;3.45;;;6.50;99.90;;;;;;4934713;29;20055;-90
2021/12/03 06:52:29;;;;;;;9.65;2.63;;;6.40;99.90;;;;;;4935024;29;20102;-91
2021/12/03 06:54:58;;;;;;;13.85;3.20;;;6.40;99.90;;;;;;4933339;29;20035;-91
2021/12/03 06:57:24;;;;;;;8.32;2.40;;;6.40;99.90;;;;;;4934876;29;20024;-90
2021/12/03 06:59:50;;;;;;;11.43;2.33;;;6.40;99.90;;;;;;4934512;29;20126;-91
2021/12/03 07:02:16;;;;;;;7.80;2.42;;;6.40;99.90;;;;;;4935047;29;20107;-91
2021/12/03 07:04:43;;;;;;;8.48;2.70;;;6.50;99.90;;;;;;4935372;29;20540;-92
2021/12/03 07:07:10;;;;;;;8.93;3.53;;;6.50;99.90;;;;;;4935134;29;20111;-91
2021/12/03 07:09:36;;;;;;;9.38;2.42;;;6.50;99.90;;;;;;4933284;29;20090;-91
2021/12/03 07:12:02;;;;;;;13.30;3.88;;;6.50;99.90;;;;;;4934803;29;20572;-91
2021/12/03 07:14:27;;;;;;;10.10;2.60;;;6.50;99.90;;;;;;4935393;29;20035;-92
2021/12/03 07:16:53;;;;;;;7.65;2.20;;;6.50;99.90;;;;;;4934873;29;20417;-91
2021/12/03 07:19:19;;;;;;;9.73;2.47;;;6.50;99.90;;;;;;4933423;29;20063;-90
2021/12/03 07:21:45;;;;;;;15.23;2.60;;;6.50;99.90;;;;;;4933169;29;20034;-90
2021/12/03 07:24:11;;;;;;;10.20;2.78;;;6.50;99.90;;;;;;4934318;29;20051;-90
2021/12/03 07:26:36;;;;;;;12.63;2.90;;;6.60;99.90;;;;;;4934454;29;20024;-90
2021/12/03 07:29:03;;;;;;;9.75;2.08;;;6.60;99.90;;;;;;4934546;29;20476;-90
2021/12/03 07:31:29;;;;;;;9.27;2.22;;;6.60;99.90;;;;;;4934126;29;20058;-90
2021/12/03 07:33:55;;;;;;;13.32;2.92;;;6.60;99.90;;;;;;4938764;29;20032;-90
2021/12/03 07:36:22;;;;;;;7.70;2.47;;;6.60;99.90;;;;;;4951961;29;20011;-90
2021/12/03 07:38:48;;;;;;;12.60;2.67;;;6.60;99.90;;;;;;4951642;29;20031;-90
2021/12/03 07:41:14;;;;;;;16.90;2.60;;;6.60;99.90;;;;;;4952741;29;20270;-90
2021/12/03 07:43:40;;;;;;;15.80;2.60;;;6.60;99.90;;;;;;4953474;29;20047;-89
2021/12/03 07:46:06;;;;;;;13.68;2.30;;;6.70;99.90;;;;;;4953375;29;20066;-90
2021/12/03 07:48:32;;;;;;;10.18;2.05;;;6.70;99.90;;;;;;4953615;29;20043;-91
2021/12/03 07:50:58;;;;;;;12.23;1.90;;;6.70;99.90;;;;;;4956276;28;20027;-90
2021/12/03 07:53:24;;;;;;;7.50;1.90;;;6.80;99.90;;;;;;4957893;28;20019;-90
2021/12/03 07:55:51;;;;;;;8.27;1.92;;;6.70;99.90;;;;;;4957488;28;20015;-89
2021/12/03 07:58:17;;;;;;;14.00;2.20;;;6.70;99.90;;;;;;4957151;28;20044;-89
2021/12/03 08:00:45;;;;;;;14.10;2.17;;;6.80;99.90;;;;;;4957887;28;20012;-90
2021/12/03 08:03:11;;;;;;;14.00;2.40;;;6.80;99.90;;;;;;4955919;28;20028;-90
2021/12/03 08:05:37;;;;;;;14.30;2.50;;;6.90;99.90;;;;;;4958323;28;20208;-90
2021/12/03 08:08:04;;;;;;;11.13;2.30;;;6.80;99.90;;;;;;4958455;28;20020;-90
2021/12/03 08:10:30;;;;;;;9.45;1.88;;;6.80;99.90;;;;;;4957330;28;20220;-90
2021/12/03 08:12:56;;;;;;;16.30;2.47;;;6.80;99.90;;;;;;4958190;28;20288;-90
2021/12/03 08:15:22;;;;;;;15.80;2.38;;;6.90;99.90;;;;;;4958170;28;20058;-90
2021/12/03 08:17:49;;;;;;;15.27;2.58;;;6.90;99.90;;;;;;4951336;28;20510;-91
2021/12/03 08:20:15;;;;;;;9.90;2.20;;;6.90;99.90;;;;;;4956423;28;20016;-90
2021/12/03 08:22:42;;;;;;;11.45;2.45;;;6.80;99.90;;;;;;4957949;28;20030;-90
2021/12/03 08:25:09;;;;;;;13.98;2.42;;;6.90;99.90;;;;;;4958211;28;20035;-91
2021/12/03 08:27:35;;;;;;;14.13;2.08;;;6.80;99.90;;;;;;4958048;28;20067;-93
2021/12/03 08:30:04;;;;;;;13.98;2.22;;;6.80;99.90;;;;;;4938751;29;20042;-90
2021/12/03 08:32:30;;;;;;;8.35;2.30;;;6.90;99.90;;;;;;4935015;29;20052;-90
2021/12/03 08:34:56;;;;;;;14.38;3.40;;;6.90;99.90;;;;;;4935586;29;20028;-91
2021/12/03 08:37:21;;;;;;;18.88;2.88;;;6.90;99.90;;;;;;4954081;28;20019;-90
2021/12/03 08:39:47;;;;;;;13.52;2.63;;;7.00;99.90;;;;;;4935050;29;20030;-91
2021/12/03 08:42:13;;;;;;;16.17;3.50;;;7.00;99.90;;;;;;4944129;29;20012;-92
2021/12/03 08:44:40;;;;;;;13.50;2.70;;;7.00;99.90;;;;;;4944827;29;20142;-92
2021/12/03 08:47:07;;;;;;;14.07;3.00;;;6.90;99.90;;;;;;4923370;29;20028;-90
2021/12/03 08:54:54;;;;;;;18.20;3.15;;;6.90;99.90;;;;;;4937111;29;20070;-90
2021/12/03 08:57:32;;;;;;;10.35;2.30;;;7.00;99.90;;;;;;4936501;29;20024;-90
2021/12/03 09:00:08;;;;;;;14.35;3.33;;;7.00;99.90;;;;;;4937421;29;20035;-91
2021/12/03 09:02:34;;;;;;;18.48;3.97;;;7.00;99.90;;;;;;4935665;29;20396;-91
2021/12/03 09:05:00;;;;;;;11.85;3.13;;;7.00;99.90;;;;;;4935797;29;20042;-91
2021/12/03 09:07:26;;;;;;;15.63;4.35;;;7.10;99.90;;;;;;4944645;29;20028;-91
2021/12/03 09:09:51;;;;;;;19.30;3.47;;;7.10;99.90;;;;;;4938526;29;20448;-91
2021/12/03 09:12:17;;;;;;;18.25;4.97;;;7.20;99.90;;;;;;4937461;29;20020;-95
2021/12/03 09:14:57;;;;;;;15.27;3.97;;;7.10;99.90;;;;;;4936079;29;20115;-91
2021/12/03 09:24:52;;;;;;;15.75;3.10;;;7.30;99.90;;;;;;4938790;28;20500;-91
2021/12/03 09:27:20;;;;;;;13.95;3.53;;;7.20;99.90;;;;;;4936790;29;20028;-91
2021/12/03 09:29:46;;;;;;;12.85;3.35;;;7.10;99.90;;;;;;4927935;29;20032;-91
2021/12/03 09:32:20;;;;;;;13.95;3.63;;;7.10;99.90;;;;;;4916906;29;20091;-90
2021/12/03 09:34:47;;;;;;;;;;;7.10;99.90;;;;;;4933119;29;20133;-90
2021/12/03 09:37:13;;;;;;;17.52;3.70;;;7.10;99.90;;;;;;4932955;29;19930;-90
2021/12/03 09:39:42;;;;;;;14.40;3.58;;;7.10;99.90;;;;;;4931921;29;20512;-89
2021/12/03 09:42:08;;;;;;;18.27;3.17;;;7.20;99.90;;;;;;4917472;29;20024;-91
2021/12/03 09:44:38;;;;;;;13.43;3.50;;;7.20;99.90;;;;;;4931490;29;20539;-90
2021/12/03 09:47:05;;;;;;;16.10;3.15;;;7.20;99.90;;;;;;4917325;29;20502;-90
2021/12/03 09:49:38;;;;;;;22.60;3.40;;;7.20;99.90;;;;;;4917963;29;20119;-90
2021/12/03 09:52:19;;;;;;;16.33;3.42;;;7.20;99.90;;;;;;4917251;29;20042;-90
2021/12/03 09:54:48;;;;;;;16.40;4.28;;;7.30;99.90;;;;;;4917087;29;20024;-90
2021/12/03 09:57:36;;;;;;;14.75;3.97;;;7.20;99.90;;;;;;4917526;29;20035;-90
2021/12/03 10:00:44;;;;;;;21.10;5.18;;;7.20;99.90;;;;;;4917601;29;20047;-91
2021/12/03 10:03:30;;;;;;;15.77;3.70;;;7.10;99.90;;;;;;4935055;29;20066;-94
2021/12/03 10:14:28;;;;;;;19.80;4.03;;;7.20;99.90;;;;;;4917439;29;20035;-90
2021/12/03 10:20:19;;;;;;;67.15;11.38;;;7.20;99.90;;;;;;4916810;29;20043;-88
2021/12/03 10:59:49;;;;;;;28.25;6.47;;;7.40;99.90;;;;;;4934262;29;20458;-85
2021/12/03 11:16:21;;;;;;;16.10;4.22;;;7.80;99.90;;;;;;4934425;29;20071;-84
2021/12/03 11:45:48;;;;;;;14.15;3.40;;;9.30;99.90;;;;;;4933870;29;20043;-85
2021/12/03 11:54:41;;;;;;;30.25;7.32;;;9.50;99.90;;;;;;4933576;29;20040;-86
2021/12/03 13:10:19;;;;;;;65.88;10.23;;;11.50;99.90;;;;;;4932716;29;20047;-87
2021/12/03 13:15:30;;;;;;;56.72;6.55;;;11.50;99.90;;;;;;4933046;29;20292;-86
2021/12/03 13:18:03;;;;;;;60.63;7.43;;;11.50;99.90;;;;;;4932864;29;20193;-86
2021/12/03 13:25:58;;;;;;;28.95;3.90;;;11.60;99.90;;;;;;4935187;29;20031;-86
2021/12/03 13:29:05;;;;;;;35.47;5.25;;;11.60;99.90;;;;;;4935778;29;20023;-86
2021/12/03 14:01:47;;;;;;;24.27;2.90;;;11.70;99.90;;;;;;4917079;29;20079;-88
2021/12/03 14:31:58;;;;;;;31.75;7.13;;;11.80;99.90;;;;;;4918014;29;20195;-88
2021/12/03 14:57:08;;;;;;;32.22;7.65;;;12.10;99.90;;;;;;4935298;29;20121;-87
2021/12/03 14:59:36;;;;;;;48.38;7.35;;;12.10;99.90;;;;;;4933491;29;20074;-86
2021/12/03 15:02:20;;;;;;;44.42;4.18;;;12.10;99.90;;;;;;4934987;29;20062;-88
2021/12/03 15:07:37;;;;;;;38.33;4.53;;;12.10;99.90;;;;;;4935068;29;20039;-87
2021/12/03 15:10:07;;;;;;;37.30;4.22;;;12.10;99.90;;;;;;4934966;29;20024;-87
2021/12/03 15:31:49;;;;;;;38.45;4.72;;;12.40;99.90;;;;;;4934548;29;20213;-87
2021/12/03 15:56:08;;;;;;;38.83;6.13;;;12.40;99.90;;;;;;4932447;29;20035;-87
2021/12/03 16:03:29;;;;;;;43.25;6.88;;;12.50;99.90;;;;;;4932154;29;20424;-86
2021/12/03 16:12:22;;;;;;;40.63;5.95;;;12.60;99.90;;;;;;4933737;29;20027;-86
2021/12/03 16:15:16;;;;;;;52.80;6.65;;;12.60;99.90;;;;;;4933822;29;20501;-87
2021/12/03 16:52:49;;;;;;;42.88;6.53;;;12.50;99.90;;;;;;4933286;29;20028;-86
2021/12/03 16:55:16;;;;;;;50.17;7.15;;;12.50;99.90;;;;;;4933821;29;20024;-85
2021/12/03 16:57:43;;;;;;;60.33;8.65;;;12.50;99.90;;;;;;4933233;29;20019;-85
2021/12/03 17:00:22;;;;;;;50.53;7.97;;;12.60;99.90;;;;;;4935516;29;20082;-85
2021/12/03 17:02:57;;;;;;;54.92;6.88;;;12.60;99.90;;;;;;4937011;29;20114;-85
2021/12/03 17:05:36;;;;;;;49.17;6.78;;;12.60;99.90;;;;;;4935826;29;20432;-85
2021/12/03 17:51:15;;;;;;;53.95;6.65;;;12.80;99.90;;;;;;4936995;29;20031;-86
2021/12/03 17:54:00;;;;;;;58.72;9.60;;;12.80;99.90;;;;;;4936268;29;20054;-85
2021/12/03 17:56:30;;;;;;;48.42;7.63;;;12.80;99.90;;;;;;4935105;29;20050;-87
2021/12/03 17:59:06;;;;;;;52.55;7.30;;;12.70;99.90;;;;;;4935002;29;20441;-85
2021/12/03 18:01:46;;;;;;;46.35;7.35;;;12.70;99.90;;;;;;4936284;29;20023;-85
2021/12/03 18:04:21;;;;;;;51.80;7.47;;;12.70;99.90;;;;;;4935175;29;20621;-85
2021/12/03 18:17:26;;;;;;;50.40;7.18;;;12.70;99.90;;;;;;4936270;29;20020;-85
2021/12/03 18:50:04;;;;;;;88.68;11.77;;;12.60;99.90;;;;;;4936680;29;20035;-85
2021/12/03 18:55:17;;;;;;;84.22;9.82;;;12.50;99.90;;;;;;4936655;29;20035;-86
2021/12/03 18:57:45;;;;;;;89.93;11.20;;;12.50;99.90;;;;;;4935211;29;20019;-85
2021/12/03 19:00:15;;;;;;;76.03;11.55;;;12.50;99.90;;;;;;4934788;29;20070;-85
2021/12/03 19:02:44;;;;;;;72.18;10.90;;;12.50;99.90;;;;;;4934792;28;20501;-85
2021/12/03 19:05:37;;;;;;;90.45;11.77;;;12.40;99.90;;;;;;4941240;29;20071;-85
2021/12/03 19:08:07;;;;;;;66.55;8.52;;;12.50;99.90;;;;;;4936459;29;20015;-85
2021/12/03 19:10:37;;;;;;;70.40;9.48;;;12.40;99.90;;;;;;4935350;29;20031;-85
2021/12/03 19:13:09;;;;;;;68.00;9.35;;;12.50;99.90;;;;;;4925480;29;20099;-85
2021/12/03 19:15:35;;;;;;;70.32;10.48;;;12.50;99.90;;;;;;4925054;29;20028;-85
2021/12/03 19:18:03;;;;;;;69.10;10.93;;;12.40;99.90;;;;;;4927669;29;20241;-84
2021/12/03 19:20:33;;;;;;;68.85;10.38;;;12.40;99.90;;;;;;4924947;29;20379;-85
2021/12/03 19:22:59;;;;;;;63.97;9.32;;;12.40;99.90;;;;;;4924564;29;20062;-85
2021/12/03 19:25:25;;;;;;;47.45;8.20;;;12.40;99.90;;;;;;4923344;29;20213;-85
2021/12/03 19:27:51;;;;;;;61.55;9.93;;;12.40;99.90;;;;;;4914140;29;20512;-85
2021/12/03 19:30:17;;;;;;;62.55;9.77;;;12.40;99.90;;;;;;4914414;29;20024;-85
2021/12/03 19:32:43;;;;;;;65.22;8.63;;;12.50;99.90;;;;;;4918540;29;20035;-85
2021/12/03 19:35:09;;;;;;;69.18;8.75;;;12.50;99.90;;;;;;4916603;29;20024;-85
2021/12/03 19:37:36;;;;;;;53.05;8.55;;;12.40;99.90;;;;;;4926158;29;20024;-85
2021/12/03 19:40:07;;;;;;;55.33;7.97;;;12.40;99.90;;;;;;4927121;29;20100;-85
2021/12/03 19:42:45;;;;;;;57.45;9.15;;;12.40;99.90;;;;;;4922514;29;20031;-84
2021/12/03 19:45:16;;;;;;;61.50;8.48;;;12.40;99.90;;;;;;4923543;29;20036;-85
2021/12/03 19:48:15;;;;;;;54.63;7.20;;;12.50;99.90;;;;;;4937173;29;20020;-86
2021/12/03 19:50:46;;;;;;;56.80;8.45;;;12.40;99.90;;;;;;4953394;29;20035;-86
2021/12/03 19:53:20;;;;;;;68.63;8.65;;;12.40;99.90;;;;;;4955365;29;20026;-85
2021/12/03 19:55:46;;;;;;;63.55;9.85;;;12.40;99.90;;;;;;4949027;29;20027;-86
2021/12/03 19:58:14;;;;;;;65.47;10.27;;;12.50;99.90;;;;;;4891020;29;1285817;-86
2021/12/03 20:00:42;;;;;;;62.35;9.63;;;12.50;99.90;;;;;;4937180;29;20028;-86
2021/12/03 20:03:11;;;;;;;59.28;9.32;;;12.50;99.90;;;;;;4947775;29;20044;-86
2021/12/03 20:05:38;;;;;;;54.38;8.07;;;12.50;99.90;;;;;;4957256;29;20012;-86
2021/12/03 20:08:06;;;;;;;49.22;7.38;;;12.50;99.90;;;;;;4948306;29;20097;-87
2021/12/03 20:10:37;;;;;;;56.13;8.27;;;12.50;99.90;;;;;;4920756;29;20124;-87
2021/12/03 20:13:06;;;;;;;64.38;7.07;;;12.50;99.90;;;;;;4930402;29;20028;-88
2021/12/03 20:20:38;;;;;;;53.22;6.95;;;12.50;99.90;;;;;;4939773;29;20035;-88
2021/12/03 20:23:28;;;;;;;62.63;7.20;;;12.60;99.90;;;;;;4938815;29;20059;-89